Time;durP1;ratioP1;P1;durP2;ratioP2;P2;SDS_P1;SDS_P2;PMS_P1;PMS_P2;Temp;Humidity;BMP_temperature;BMP_pressure;BME280_temperature;BME280_humidity;BME280_pressure;Samples;Min_cycle;Max_cycle;Signal;HPM_P1;HPM_P2
2023/06/30 00:00:59;;;;;;;13.65;8.25;;;;;;;24.90;45.11;101617.44;5001011;28;20398;-30
2023/06/30 00:03:25;;;;;;;13.77;8.38;;;;;;;24.88;45.58;101614.03;5000719;28;20093;-32
2023/06/30 00:05:52;;;;;;;12.23;7.75;;;;;;;24.87;45.25;101610.47;5002123;28;20146;-31
2023/06/30 00:08:19;;;;;;;14.35;8.10;;;;;;;24.86;44.96;101610.69;5001361;28;20397;-30
2023/06/30 00:10:45;;;;;;;11.70;7.45;;;;;;;24.85;45.24;101606.28;4998515;28;20050;-31
2023/06/30 00:13:12;;;;;;;12.93;7.60;;;;;;;24.84;45.19;101601.84;5000711;28;20054;-30
2023/06/30 00:19:19;;;;;;;11.82;6.85;;;;;;;24.82;45.29;101601.22;4999850;28;20041;-31
2023/06/30 00:21:48;;;;;;;11.75;7.28;;;;;;;24.80;45.40;101600.53;4999354;28;20363;-31
2023/06/30 00:24:14;;;;;;;11.20;6.75;;;;;;;24.78;45.17;101599.88;4998139;28;20089;-30
2023/06/30 00:26:41;;;;;;;11.13;7.00;;;;;;;24.77;45.09;101598.22;5001602;28;20081;-31
2023/06/30 00:29:08;;;;;;;11.70;7.13;;;;;;;24.75;45.08;101601.06;4999618;28;20128;-31
2023/06/30 00:31:35;;;;;;;10.90;6.55;;;;;;;24.75;45.56;101600.25;5003673;28;20185;-30
2023/06/30 00:34:01;;;;;;;11.18;6.55;;;;;;;24.73;45.49;101588.75;5001657;28;20049;-30
2023/06/30 00:36:31;;;;;;;11.73;7.05;;;;;;;24.72;45.07;101595.16;5007461;28;20464;-29
2023/06/30 00:38:58;;;;;;;10.82;6.70;;;;;;;24.72;45.35;101592.47;5001649;28;20621;-29
2023/06/30 00:41:25;;;;;;;11.73;6.80;;;;;;;24.70;45.43;101592.66;5006711;28;20116;-30
2023/06/30 00:59:03;;;;;;;8.23;5.50;;;;;;;24.62;44.94;101590.84;5007023;28;20095;-31
2023/06/30 01:01:48;;;;;;;11.70;6.80;;;;;;;24.59;45.08;101582.22;5006221;28;21498;-31
2023/06/30 01:04:35;;;;;;;9.13;5.20;;;;;;;24.59;45.78;101587.63;5002317;28;20108;-29
2023/06/30 01:07:19;;;;;;;8.60;5.18;;;;;;;24.57;45.63;101589.69;5004010;28;20210;-30
2023/06/30 01:10:04;;;;;;;8.57;5.30;;;;;;;24.55;45.23;101584.44;5004484;28;20434;-29
2023/06/30 01:12:31;;;;;;;8.68;5.13;;;;;;;24.56;45.64;101583.44;5005418;28;20093;-29
2023/06/30 01:14:59;;;;;;;8.88;5.38;;;;;;;24.54;45.27;101580.03;5005340;28;20058;-29
2023/06/30 01:17:27;;;;;;;8.02;5.07;;;;;;;24.53;45.26;101583.78;4999608;28;20061;-30
2023/06/30 01:19:56;;;;;;;8.07;4.90;;;;;;;24.53;45.68;101591.91;5005571;28;20085;-30
2023/06/30 01:22:33;;;;;;;8.90;5.15;;;;;;;24.50;45.62;101584.13;5002930;28;20277;-32
2023/06/30 01:25:08;;;;;;;10.43;5.20;;;;;;;24.50;45.32;101588.72;4998057;28;20350;-32
2023/06/30 01:27:36;;;;;;;8.88;5.40;;;;;;;24.50;45.67;101583.28;5007871;28;20081;-29
2023/06/30 01:30:05;;;;;;;7.40;4.13;;;;;;;24.48;45.84;101590.75;5005365;28;20042;-32
2023/06/30 01:32:33;;;;;;;8.88;4.90;;;;;;;24.48;45.76;101588.03;5006177;28;20053;-31
2023/06/30 01:35:00;;;;;;;9.48;4.78;;;;;;;24.47;45.34;101586.34;5006109;28;20053;-32
2023/06/30 01:37:27;;;;;;;6.53;4.30;;;;;;;24.45;45.72;101591.97;5003507;28;20492;-29
2023/06/30 01:39:53;;;;;;;7.60;4.32;;;;;;;24.45;45.72;101593.84;5001558;28;20137;-30
2023/06/30 01:42:20;;;;;;;6.15;3.97;;;;;;;24.44;45.95;101584.00;5005715;28;20137;-30
2023/06/30 01:44:48;;;;;;;9.32;4.20;;;;;;;24.43;45.61;101582.31;5004507;28;20119;-30
2023/06/30 01:47:16;;;;;;;5.10;3.42;;;;;;;24.42;45.67;101576.06;5000844;28;20320;-29
2023/06/30 01:49:44;;;;;;;7.68;4.07;;;;;;;24.42;45.75;101576.06;5003219;28;20050;-30
2023/06/30 01:52:11;;;;;;;5.50;3.55;;;;;;;24.40;45.72;101582.66;5004205;28;20466;-30
2023/06/30 01:54:37;;;;;;;7.03;4.50;;;;;;;24.40;45.42;101586.22;5006537;28;20342;-29
2023/06/30 01:57:04;;;;;;;6.30;3.80;;;;;;;24.38;45.45;101583.69;5004085;28;20328;-30
2023/06/30 01:59:31;;;;;;;6.43;3.97;;;;;;;24.38;45.69;101585.56;5002003;28;20065;-29
2023/06/30 02:01:58;;;;;;;5.28;2.97;;;;;;;24.37;45.41;101589.28;5005932;28;20176;-30
2023/06/30 02:04:24;;;;;;;5.65;3.60;;;;;;;24.36;45.61;101582.13;5000347;28;20054;-29
2023/06/30 02:06:51;;;;;;;7.07;3.92;;;;;;;24.35;45.42;101575.03;5006257;28;20045;-29
2023/06/30 02:09:17;;;;;;;6.90;4.13;;;;;;;24.35;45.73;101577.75;5004610;28;20052;-29
2023/06/30 02:11:46;;;;;;;5.85;3.22;;;;;;;24.34;45.83;101571.50;5001816;28;20051;-30
2023/06/30 02:14:12;;;;;;;5.80;3.63;;;;;;;24.33;45.23;101568.97;5007924;28;20073;-30
2023/06/30 02:16:39;;;;;;;5.93;3.28;;;;;;;24.33;45.49;101577.09;5004934;28;20516;-30
2023/06/30 02:19:06;;;;;;;5.40;3.25;;;;;;;24.32;45.12;101570.84;5006210;28;20049;-29
2023/06/30 02:21:32;;;;;;;5.18;3.33;;;;;;;24.30;45.11;101567.44;5001625;28;20042;-29
2023/06/30 02:23:59;;;;;;;4.78;3.05;;;;;;;24.29;45.56;101573.91;5004728;28;20060;-29
2023/06/30 02:26:25;;;;;;;3.60;2.50;;;;;;;24.29;45.06;101573.06;5003718;28;20092;-29
2023/06/30 02:28:52;;;;;;;5.32;2.92;;;;;;;24.28;45.35;101568.63;5008407;28;20124;-29
2023/06/30 02:31:19;;;;;;;5.38;3.10;;;;;;;24.27;45.47;101569.66;5004195;28;20074;-29
2023/06/30 02:33:45;;;;;;;6.63;2.75;;;;;;;24.26;45.47;101563.41;5004429;28;20128;-29
2023/06/30 02:36:12;;;;;;;6.28;3.03;;;;;;;24.25;45.17;101569.84;5002084;28;20049;-30
2023/06/30 02:38:38;;;;;;;3.70;2.30;;;;;;;24.26;45.60;101578.81;5001419;28;20129;-29
2023/06/30 02:41:05;;;;;;;4.68;2.35;;;;;;;24.25;45.11;101579.84;5003866;28;20054;-29
2023/06/30 02:43:32;;;;;;;5.20;2.60;;;;;;;24.23;45.44;101574.59;5005293;28;20105;-29
2023/06/30 02:45:58;;;;;;;4.07;2.65;;;;;;;24.22;45.50;101575.63;5002813;28;20140;-30
2023/06/30 02:48:25;;;;;;;6.57;2.78;;;;;;;24.22;45.46;101570.19;5001247;28;20526;-29
2023/06/30 02:50:51;;;;;;;8.38;2.60;;;;;;;24.21;45.41;101564.97;5002346;28;20046;-29
2023/06/30 02:53:18;;;;;;;5.85;2.42;;;;;;;24.21;45.54;101564.97;5000939;28;20058;-29
2023/06/30 02:55:45;;;;;;;11.18;3.15;;;;;;;24.20;45.75;101569.56;5002183;28;20437;-29
2023/06/30 02:58:12;;;;;;;3.20;2.10;;;;;;;24.18;45.36;101560.75;5001185;28;20041;-29
2023/06/30 03:00:39;;;;;;;4.82;2.53;;;;;;;24.18;45.58;101568.03;4999398;28;20046;-29
2023/06/30 03:03:06;;;;;;;4.82;2.50;;;;;;;24.18;45.18;101565.31;5000380;28;20407;-29
2023/06/30 03:05:36;;;;;;;4.03;2.45;;;;;;;24.16;45.54;101565.47;4999608;28;20050;-30
2023/06/30 03:08:03;;;;;;;3.28;2.17;;;;;;;24.17;45.66;101571.75;4998331;28;20042;-29
2023/06/30 03:10:30;;;;;;;3.38;1.95;;;;;;;24.15;45.31;101569.22;5002746;28;20045;-29
2023/06/30 03:12:57;;;;;;;4.80;2.17;;;;;;;24.14;45.49;101568.38;5002181;28;20049;-30
2023/06/30 03:15:23;;;;;;;4.20;2.22;;;;;;;24.13;45.50;101563.97;5001422;28;20125;-30
2023/06/30 03:17:50;;;;;;;3.92;1.92;;;;;;;24.13;45.25;101561.28;5000006;28;20430;-29
2023/06/30 03:20:17;;;;;;;3.65;2.35;;;;;;;24.11;45.06;101555.16;5001100;28;20427;-29
2023/06/30 03:22:44;;;;;;;3.70;1.95;;;;;;;24.12;45.15;101562.31;4998814;28;20065;-29
2023/06/30 03:25:10;;;;;;;4.43;2.00;;;;;;;24.11;45.44;101562.47;5003863;28;20521;-29
2023/06/30 03:27:37;;;;;;;5.15;2.42;;;;;;;24.10;45.74;101561.63;4999655;28;20104;-29
2023/06/30 03:30:05;;;;;;;4.43;2.22;;;;;;;24.09;45.00;101576.19;5002312;28;20097;-29
2023/06/30 03:32:32;;;;;;;3.65;1.92;;;;;;;24.09;45.32;101576.19;5005537;28;20087;-29
2023/06/30 03:35:03;;;;;;;3.45;2.00;;;;;;;24.07;45.70;101570.09;5006073;28;20092;-29
2023/06/30 03:37:31;;;;;;;3.83;2.17;;;;;;;24.08;45.47;101576.34;4999188;28;20105;-29
2023/06/30 03:39:57;;;;;;;4.10;2.25;;;;;;;24.06;45.32;101576.53;5006235;28;20049;-30
2023/06/30 03:42:24;;;;;;;3.03;1.70;;;;;;;24.06;45.32;101581.94;5006260;28;20047;-29
2023/06/30 03:44:50;;;;;;;3.40;1.58;;;;;;;24.05;45.19;101580.28;5006843;28;20050;-29
2023/06/30 03:47:17;;;;;;;3.75;2.10;;;;;;;24.05;45.42;101582.97;5000157;28;20497;-29
2023/06/30 03:49:44;;;;;;;3.45;1.85;;;;;;;24.03;45.74;101576.88;5001463;28;20480;-29
2023/06/30 03:52:10;;;;;;;3.42;1.73;;;;;;;24.04;45.33;101572.31;5010530;28;20085;-29
2023/06/30 03:54:37;;;;;;;3.10;1.70;;;;;;;24.03;45.35;101578.75;5010232;28;20347;-29
2023/06/30 03:57:04;;;;;;;4.28;1.83;;;;;;;24.03;45.06;101576.88;5003318;28;20085;-29
2023/06/30 03:59:31;;;;;;;2.90;1.55;;;;;;;24.01;45.68;101578.94;5005497;28;20140;-29
2023/06/30 04:01:57;;;;;;;2.72;1.73;;;;;;;24.03;44.93;101576.03;5006340;28;20058;-29
2023/06/30 04:04:24;;;;;;;2.10;1.65;;;;;;;24.02;45.40;101580.63;5005785;28;20062;-29
2023/06/30 04:06:51;;;;;;;4.50;1.85;;;;;;;24.02;45.75;101569.78;5004166;28;20058;-29
2023/06/30 04:09:18;;;;;;;3.05;1.50;;;;;;;24.03;45.47;101576.03;5003541;28;20074;-29
2023/06/30 04:11:44;;;;;;;3.90;2.20;;;;;;;24.02;45.27;101571.66;5009073;28;20049;-30
2023/06/30 04:14:11;;;;;;;2.15;1.40;;;;;;;24.01;45.36;101576.22;5006204;28;20108;-29
2023/06/30 04:16:38;;;;;;;3.63;1.48;;;;;;;24.01;45.13;101568.09;5002283;28;20054;-29
2023/06/30 04:19:04;;;;;;;3.90;1.48;;;;;;;24.01;45.63;101569.97;5004007;28;20064;-29
2023/06/30 04:21:31;;;;;;;3.13;1.52;;;;;;;24.01;45.39;101575.38;5004715;28;20081;-30
2023/06/30 04:23:58;;;;;;;3.92;1.50;;;;;;;24.01;45.43;101570.81;5001611;28;20167;-30
2023/06/30 04:26:25;;;;;;;2.85;1.30;;;;;;;24.01;45.02;101570.81;5005165;28;20061;-29
2023/06/30 04:28:51;;;;;;;2.50;1.48;;;;;;;24.01;45.01;101568.09;5005258;28;20074;-29
2023/06/30 04:31:18;;;;;;;3.45;1.60;;;;;;;24.01;45.20;101573.50;5003252;28;20132;-30
2023/06/30 04:33:45;;;;;;;2.20;1.27;;;;;;;24.01;44.94;101570.81;5001622;28;20054;-30
2023/06/30 04:36:11;;;;;;;3.72;1.40;;;;;;;24.01;45.04;101568.09;5004231;28;20113;-31
2023/06/30 04:38:38;;;;;;;2.40;1.60;;;;;;;24.01;45.43;101568.09;5001673;28;20434;-29
2023/06/30 04:41:05;;;;;;;2.33;1.15;;;;;;;24.02;45.34;101564.38;5006524;28;20058;-29
2023/06/30 04:43:32;;;;;;;3.45;1.63;;;;;;;24.02;45.01;101561.66;5007989;28;20675;-29
2023/06/30 04:45:59;;;;;;;1.95;1.33;;;;;;;24.04;44.92;101565.06;5006133;28;20054;-28
2023/06/30 04:48:26;;;;;;;2.28;1.02;;;;;;;24.04;45.17;101561.47;5005510;28;20354;-29
2023/06/30 04:50:53;;;;;;;3.28;1.50;;;;;;;24.05;45.12;101558.59;5001413;28;20525;-30
2023/06/30 04:53:19;;;;;;;1.67;1.10;;;;;;;24.06;45.19;101567.56;5002257;28;20443;-29
2023/06/30 04:55:46;;;;;;;3.28;1.50;;;;;;;24.07;44.77;101572.81;5004934;28;20057;-29
2023/06/30 04:58:13;;;;;;;1.98;1.20;;;;;;;24.08;45.25;101569.09;5000816;28;20137;-29
2023/06/30 05:00:39;;;;;;;2.65;1.40;;;;;;;24.10;44.94;101574.31;5006176;28;20095;-29
2023/06/30 05:03:06;;;;;;;1.88;1.20;;;;;;;24.10;45.32;101572.44;5003637;28;20343;-29
2023/06/30 05:05:33;;;;;;;3.60;1.10;;;;;;;24.11;45.24;101566.00;5004921;28;20056;-29
2023/06/30 05:07:59;;;;;;;3.10;1.30;;;;;;;24.12;44.95;101578.56;5000136;28;20053;-29
2023/06/30 05:10:26;;;;;;;2.40;1.13;;;;;;;24.14;45.06;101576.50;5002787;28;20046;-29
2023/06/30 05:12:53;;;;;;;2.10;0.93;;;;;;;24.16;44.89;101578.19;4997795;28;20050;-29
2023/06/30 05:15:19;;;;;;;2.00;1.10;;;;;;;24.18;44.72;101562.59;5004713;28;20081;-29
2023/06/30 05:17:46;;;;;;;2.85;1.08;;;;;;;24.20;44.61;101571.38;5002648;28;20132;-29
2023/06/30 05:20:13;;;;;;;1.88;1.00;;;;;;;24.20;45.14;101577.69;4999066;28;20104;-29
2023/06/30 05:22:39;;;;;;;2.33;1.30;;;;;;;24.23;44.77;101573.75;4997607;28;20509;-29
2023/06/30 05:25:06;;;;;;;3.05;1.35;;;;;;;24.24;45.27;101567.31;5000347;28;20112;-30
2023/06/30 05:27:33;;;;;;;2.58;0.82;;;;;;;24.26;44.38;101567.97;5000139;28;20100;-30
2023/06/30 05:29:59;;;;;;;3.00;1.20;;;;;;;24.27;44.61;101570.50;5003456;28;20505;-30
2023/06/30 05:32:26;;;;;;;1.73;1.08;;;;;;;24.29;44.71;101570.34;5003815;28;20113;-30
2023/06/30 05:34:53;;;;;;;2.20;1.25;;;;;;;24.30;44.91;101569.31;5006919;28;20050;-30
2023/06/30 05:37:19;;;;;;;4.43;2.20;;;;;;;24.31;44.28;101561.00;5008180;28;20050;-29
2023/06/30 05:39:46;;;;;;;4.07;2.70;;;;;;;24.32;44.98;101570.84;5004723;28;20042;-31
2023/06/30 05:42:12;;;;;;;7.57;3.35;;;;;;;24.33;44.73;101564.38;5001307;28;20054;-30
2023/06/30 05:44:39;;;;;;;6.55;3.47;;;;;;;24.36;44.40;101565.88;5005803;28;20141;-29
2023/06/30 05:47:06;;;;;;;8.18;4.15;;;;;;;24.37;44.25;101571.13;5005970;28;20058;-31
2023/06/30 05:49:32;;;;;;;6.30;3.25;;;;;;;24.40;44.33;101567.25;5000018;28;20050;-30
2023/06/30 05:51:59;;;;;;;6.13;3.38;;;;;;;24.40;44.44;101572.66;5001108;28;20054;-30
2023/06/30 05:54:26;;;;;;;7.95;3.90;;;;;;;24.42;44.40;101567.91;5006987;28;20073;-30
2023/06/30 05:56:52;;;;;;;5.43;3.47;;;;;;;24.45;44.07;101569.44;5004435;28;20137;-30
2023/06/30 05:59:19;;;;;;;5.15;3.10;;;;;;;24.45;44.46;101569.44;5001836;28;20130;-30
2023/06/30 06:01:45;;;;;;;7.47;3.60;;;;;;;24.46;44.21;101563.00;4999512;28;20496;-29
2023/06/30 06:04:12;;;;;;;7.00;3.40;;;;;;;24.46;44.20;101555.69;5001110;28;20477;-30
2023/06/30 06:06:39;;;;;;;6.10;3.30;;;;;;;24.48;44.27;101566.34;5001364;28;20050;-29
2023/06/30 06:09:06;;;;;;;8.93;3.58;;;;;;;24.47;44.20;101568.22;5003421;28;20054;-30
2023/06/30 06:11:32;;;;;;;5.38;3.17;;;;;;;24.49;44.38;101570.78;5005278;28;20453;-30
2023/06/30 06:13:59;;;;;;;7.13;3.97;;;;;;;24.49;44.50;101566.19;5001944;28;20077;-30
2023/06/30 06:16:26;;;;;;;7.38;3.97;;;;;;;24.49;44.22;101568.06;5005999;28;20046;-30
2023/06/30 06:18:52;;;;;;;8.73;4.22;;;;;;;24.51;44.47;101574.13;5004137;28;20398;-29
2023/06/30 06:21:20;;;;;;;8.65;4.40;;;;;;;24.50;44.07;101575.16;5003365;28;20054;-30
2023/06/30 06:23:46;;;;;;;7.85;4.30;;;;;;;24.49;43.99;101574.31;5002654;28;20089;-30
2023/06/30 06:26:13;;;;;;;6.78;4.05;;;;;;;24.49;44.31;101566.19;5000966;28;20050;-30
2023/06/30 06:28:40;;;;;;;7.75;4.13;;;;;;;24.50;44.54;101573.28;5000098;28;20392;-30
2023/06/30 06:31:07;;;;;;;10.55;4.30;;;;;;;24.51;44.03;101577.69;5004680;28;20085;-30
2023/06/30 06:33:33;;;;;;;7.28;4.05;;;;;;;24.51;44.62;101574.97;5005581;28;20085;-30
2023/06/30 06:36:00;;;;;;;7.05;3.95;;;;;;;24.51;44.00;101577.69;5006449;28;20053;-30
2023/06/30 06:38:27;;;;;;;8.77;4.43;;;;;;;24.52;44.14;101579.41;5005165;28;20054;-30
2023/06/30 06:40:53;;;;;;;10.02;4.28;;;;;;;24.53;44.37;101566.69;4998789;28;20496;-31
2023/06/30 06:43:25;;;;;;;7.07;4.05;;;;;;;24.53;44.45;101577.53;5003528;28;20049;-30
2023/06/30 06:45:52;;;;;;;8.18;4.03;;;;;;;24.53;44.39;101572.94;5000786;28;20521;-30
2023/06/30 06:48:24;;;;;;;10.30;3.88;;;;;;;24.54;43.80;101571.91;4998906;28;20050;-30
2023/06/30 06:50:52;;;;;;;9.35;4.03;;;;;;;24.53;43.90;101570.22;5001278;28;20065;-30
2023/06/30 06:53:27;;;;;;;7.97;4.32;;;;;;;24.53;43.82;101567.53;4998894;28;20077;-30
2023/06/30 06:55:55;;;;;;;7.30;3.80;;;;;;;24.54;44.17;101561.06;5006232;28;20050;-29
2023/06/30 06:58:24;;;;;;;9.18;3.97;;;;;;;24.55;44.21;101561.91;5000151;28;20058;-31
2023/06/30 07:00:51;;;;;;;11.30;5.25;;;;;;;24.54;44.17;101563.78;4998421;28;20109;-30
2023/06/30 07:03:19;;;;;;;10.88;5.72;;;;;;;24.55;44.36;101567.31;4997512;28;20518;-30
2023/06/30 07:05:46;;;;;;;12.50;5.97;;;;;;;24.57;44.29;101570.72;5001521;28;20072;-30
2023/06/30 07:08:15;;;;;;;11.57;6.72;;;;;;;24.55;44.21;101565.47;5000167;28;20046;-29
2023/06/30 07:10:43;;;;;;;13.02;7.05;;;;;;;24.55;44.67;101570.88;4998928;28;20073;-30
2023/06/30 07:13:10;;;;;;;13.90;7.55;;;;;;;24.55;44.57;101570.88;5001244;28;20345;-30
2023/06/30 07:15:37;;;;;;;18.00;9.93;;;;;;;24.55;44.58;101576.31;5002281;28;20080;-30
2023/06/30 07:18:03;;;;;;;20.23;9.90;;;;;;;24.56;44.68;101579.84;5008064;28;20057;-30
2023/06/30 07:20:30;;;;;;;16.80;10.23;;;;;;;24.55;44.20;101581.72;5001691;28;20129;-30
2023/06/30 07:22:57;;;;;;;17.95;9.77;;;;;;;24.55;43.73;101576.31;4999893;28;20046;-29
2023/06/30 07:25:25;;;;;;;16.17;9.43;;;;;;;24.56;43.80;101580.72;5000916;28;20054;-29
2023/06/30 07:27:57;;;;;;;17.80;9.95;;;;;;;24.55;44.26;101579.00;5002272;28;20054;-30
2023/06/30 07:30:27;;;;;;;17.45;10.35;;;;;;;24.57;43.81;101570.72;5004184;28;20046;-31
2023/06/30 07:32:54;;;;;;;15.60;8.70;;;;;;;24.56;44.27;101563.59;4998563;28;20114;-30
2023/06/30 07:35:22;;;;;;;14.80;8.35;;;;;;;24.57;44.11;101565.31;4999742;28;20053;-30
2023/06/30 07:37:49;;;;;;;16.85;8.18;;;;;;;24.58;43.69;101580.53;4996921;28;20509;-30
2023/06/30 07:40:17;;;;;;;15.38;9.07;;;;;;;24.57;43.61;101568.84;4998951;28;20042;-30
2023/06/30 07:42:47;;;;;;;15.05;7.93;;;;;;;24.57;43.78;101566.13;5003801;28;20133;-30
2023/06/30 07:45:16;;;;;;;12.80;7.30;;;;;;;24.58;43.90;101573.25;5001938;28;20053;-30
2023/06/30 07:47:45;;;;;;;12.90;7.68;;;;;;;24.58;44.22;101567.81;5001426;28;20057;-30
2023/06/30 07:50:14;;;;;;;15.07;8.32;;;;;;;24.59;44.05;101563.25;5001695;28;20095;-29
2023/06/30 07:52:45;;;;;;;15.35;8.05;;;;;;;24.59;43.54;101561.38;5001430;28;20046;-30
2023/06/30 07:55:12;;;;;;;14.15;7.93;;;;;;;24.60;43.51;101557.66;4990359;28;20057;-30
2023/06/30 07:57:39;;;;;;;13.68;8.50;;;;;;;24.59;43.63;101558.66;5009417;28;20056;-29
2023/06/30 08:00:07;;;;;;;15.93;9.20;;;;;;;24.60;43.91;101559.50;5012420;28;20430;-30
2023/06/30 08:02:33;;;;;;;14.98;8.82;;;;;;;24.61;43.72;101558.50;5004735;28;20045;-30
2023/06/30 08:05:00;;;;;;;14.68;9.23;;;;;;;24.62;43.76;101565.59;5002872;28;20058;-30
2023/06/30 08:07:27;;;;;;;16.17;9.23;;;;;;;24.62;43.85;101561.00;5011422;28;20108;-30
2023/06/30 08:10:14;;;;;;;15.52;8.60;;;;;;;24.63;44.00;101559.97;5008389;28;20058;-30
2023/06/30 08:12:40;;;;;;;14.02;8.30;;;;;;;24.64;43.72;101563.53;5008492;28;20053;-30
2023/06/30 08:15:07;;;;;;;15.23;8.15;;;;;;;24.63;43.80;101554.56;5005537;28;20104;-30
2023/06/30 08:17:34;;;;;;;12.80;7.70;;;;;;;24.65;43.94;101551.69;5004672;28;20350;-29
2023/06/30 08:20:20;;;;;;;12.90;7.43;;;;;;;24.66;43.74;101558.78;5008708;28;20111;-30
2023/06/30 08:22:46;;;;;;;11.70;7.13;;;;;;;24.67;43.85;101554.22;5008305;28;20045;-29
2023/06/30 08:25:13;;;;;;;12.38;7.00;;;;;;;24.69;43.35;101554.88;5001298;28;20105;-30
2023/06/30 08:27:39;;;;;;;12.93;6.68;;;;;;;24.70;43.16;101559.28;5007129;28;20069;-30
2023/06/30 08:30:07;;;;;;;10.23;5.85;;;;;;;24.72;43.36;101549.06;5005513;28;20105;-30
2023/06/30 08:32:33;;;;;;;11.43;7.07;;;;;;;24.72;43.12;101543.66;5005176;28;20426;-31
2023/06/30 08:35:00;;;;;;;11.32;7.13;;;;;;;24.74;43.10;101547.03;5004710;28;20054;-30
2023/06/30 08:37:27;;;;;;;10.27;6.03;;;;;;;24.76;43.02;101547.69;5005110;28;20161;-30
2023/06/30 08:39:53;;;;;;;11.02;5.97;;;;;;;24.76;42.66;101542.28;5002801;28;20073;-30
2023/06/30 08:42:26;;;;;;;12.13;5.65;;;;;;;24.76;43.11;101542.28;5005040;28;20120;-30
2023/06/30 08:44:54;;;;;;;12.18;5.85;;;;;;;24.79;42.65;101542.75;5006345;28;20046;-30
2023/06/30 08:47:25;;;;;;;8.27;4.90;;;;;;;24.79;42.86;101539.19;5000460;28;20437;-29
2023/06/30 08:49:53;;;;;;;8.65;5.53;;;;;;;24.81;42.96;101537.16;5004388;28;20050;-31
2023/06/30 08:52:21;;;;;;;8.57;5.13;;;;;;;24.82;42.43;101533.41;5003524;28;20327;-29
2023/06/30 08:54:48;;;;;;;8.02;4.63;;;;;;;24.83;42.89;101532.38;4998961;28;20104;-29
2023/06/30 08:57:16;;;;;;;10.02;4.97;;;;;;;24.84;42.30;101528.66;4999162;28;20072;-29
2023/06/30 08:59:45;;;;;;;7.32;4.50;;;;;;;24.84;42.59;101534.06;5002789;28;20049;-29
2023/06/30 09:02:12;;;;;;;9.48;4.47;;;;;;;24.86;42.40;101521.19;4998688;28;20501;-29
2023/06/30 09:04:42;;;;;;;7.50;4.07;;;;;;;24.86;42.73;101524.75;5004463;28;20129;-29
2023/06/30 09:07:19;;;;;;;6.03;3.30;;;;;;;24.88;42.59;101521.84;5003561;28;20049;-30
2023/06/30 09:09:47;;;;;;;7.78;4.18;;;;;;;24.89;42.11;101518.13;5003046;28;20331;-30
2023/06/30 09:12:14;;;;;;;7.32;3.50;;;;;;;24.90;42.21;101514.38;5004636;28;20054;-30
2023/06/30 09:14:44;;;;;;;6.00;3.58;;;;;;;24.91;42.12;101513.34;5002315;28;20128;-29
2023/06/30 09:17:11;;;;;;;5.75;2.97;;;;;;;24.92;42.39;101504.16;4997603;28;20129;-30
2023/06/30 09:19:39;;;;;;;5.22;3.20;;;;;;;24.94;42.42;101507.56;4998195;28;20053;-30
2023/06/30 09:22:06;;;;;;;8.75;3.95;;;;;;;24.95;41.99;101498.38;5000268;28;20109;-30
2023/06/30 09:24:53;;;;;;;8.98;4.70;;;;;;;24.98;41.60;101503.44;4999581;28;20062;-30
2023/06/30 09:27:20;;;;;;;12.13;6.53;;;;;;;24.99;42.02;101512.41;5004083;28;20054;-30
2023/06/30 09:29:54;;;;;;;11.50;7.00;;;;;;;24.99;41.69;101490.72;5009919;28;20353;-30
2023/06/30 09:32:31;;;;;;;13.82;6.07;;;;;;;25.00;41.97;101500.53;4998525;28;20454;-31
2023/06/30 09:35:17;;;;;;;9.68;5.40;;;;;;;24.99;41.96;101497.00;5005698;28;20097;-30
2023/06/30 09:37:44;;;;;;;7.88;4.75;;;;;;;25.03;41.79;101502.91;5004491;28;20049;-30
2023/06/30 09:40:13;;;;;;;9.18;4.53;;;;;;;25.03;41.70;101498.31;5005812;28;20049;-30
2023/06/30 09:42:41;;;;;;;8.32;4.25;;;;;;;25.04;41.30;101493.72;5007090;28;20042;-30
2023/06/30 09:45:08;;;;;;;7.22;4.20;;;;;;;25.04;41.53;101493.72;5003707;28;20053;-30
2023/06/30 09:47:34;;;;;;;6.28;3.22;;;;;;;25.04;41.25;101496.44;5003601;28;20046;-30
2023/06/30 09:50:02;;;;;;;8.57;3.70;;;;;;;25.04;41.46;101499.97;5007226;28;20042;-30
2023/06/30 09:52:31;;;;;;;5.60;3.35;;;;;;;25.06;41.32;101500.66;5000798;28;20053;-30
2023/06/30 09:54:57;;;;;;;6.25;3.47;;;;;;;25.07;41.24;101494.19;5002300;28;20262;-30
2023/06/30 09:57:27;;;;;;;7.18;3.58;;;;;;;25.08;41.45;101492.31;4997424;28;21206;-30
2023/06/30 09:59:54;;;;;;;6.30;2.90;;;;;;;25.09;41.38;101496.78;5006892;28;20105;-32
2023/06/30 10:02:20;;;;;;;8.38;3.20;;;;;;;25.08;41.21;101490.44;5003447;28;20050;-30
2023/06/30 10:04:47;;;;;;;4.43;2.88;;;;;;;25.10;41.38;101484.88;5007262;28;20129;-31
2023/06/30 10:07:15;;;;;;;4.65;2.83;;;;;;;25.11;41.65;101492.00;5001161;28;20434;-30
2023/06/30 10:09:44;;;;;;;6.93;3.15;;;;;;;25.12;41.07;101485.53;5001275;28;20051;-30
2023/06/30 10:12:13;;;;;;;4.75;2.75;;;;;;;25.14;41.04;101480.78;5005263;28;20112;-31
2023/06/30 10:14:41;;;;;;;4.10;2.35;;;;;;;25.16;41.06;101480.59;4999540;28;20346;-30
2023/06/30 10:17:08;;;;;;;4.82;2.42;;;;;;;25.19;40.91;101480.22;5001508;28;20070;-30
2023/06/30 10:19:37;;;;;;;5.43;2.20;;;;;;;25.22;40.74;101479.84;4996757;28;20065;-30
2023/06/30 10:22:04;;;;;;;4.68;2.50;;;;;;;25.24;41.12;101480.50;4997449;28;20513;-30
2023/06/30 10:24:41;;;;;;;3.22;2.03;;;;;;;25.25;41.18;101490.34;4998627;28;20074;-30
2023/06/30 10:27:12;;;;;;;4.95;1.75;;;;;;;25.26;41.38;101489.31;5004718;28;20137;-30
2023/06/30 10:29:38;;;;;;;3.50;2.20;;;;;;;25.27;40.90;101480.13;5002635;28;20104;-30
2023/06/30 10:32:05;;;;;;;4.50;2.10;;;;;;;25.30;40.89;101474.34;4999130;28;20038;-31
2023/06/30 10:34:33;;;;;;;4.40;1.73;;;;;;;25.31;40.79;101474.13;5002650;28;20061;-30
2023/06/30 10:37:00;;;;;;;5.65;2.20;;;;;;;25.35;41.32;101472.75;5001281;28;20082;-30
2023/06/30 10:39:27;;;;;;;6.20;1.88;;;;;;;25.36;40.93;101466.28;5004228;28;20050;-30
2023/06/30 10:41:57;;;;;;;3.75;1.80;;;;;;;25.38;40.80;101459.84;5004187;28;20077;-30
2023/06/30 10:44:43;;;;;;;4.72;2.20;;;;;;;25.40;41.02;101463.19;4998862;28;20225;-30
2023/06/30 10:47:10;;;;;;;3.72;1.83;;;;;;;25.43;40.93;101452.81;4999377;28;20438;-30
2023/06/30 10:49:41;;;;;;;6.13;2.00;;;;;;;25.45;40.77;101448.03;4997951;28;20185;-31
2023/06/30 10:52:23;;;;;;;5.05;1.92;;;;;;;25.48;40.83;101455.78;5003184;28;20121;-30
2023/06/30 10:54:50;;;;;;;4.93;1.60;;;;;;;25.51;41.02;101457.28;5001282;28;20046;-30
2023/06/30 10:57:19;;;;;;;4.18;1.77;;;;;;;25.51;40.68;101455.41;5002075;28;20042;-30
2023/06/30 11:00:01;;;;;;;4.78;1.58;;;;;;;25.55;40.50;101442.31;5000104;28;20418;-31
2023/06/30 11:02:32;;;;;;;2.83;1.52;;;;;;;25.57;40.29;101449.25;5000776;28;20103;-30
2023/06/30 11:05:21;;;;;;;5.57;1.70;;;;;;;25.58;40.44;101448.22;5003526;28;20062;-31
2023/06/30 11:07:52;;;;;;;4.50;1.42;;;;;;;25.63;40.32;101444.09;5003780;28;20105;-30
2023/06/30 11:10:27;;;;;;;2.40;1.40;;;;;;;25.63;40.29;101431.34;5000753;28;20501;-31
2023/06/30 11:12:57;;;;;;;8.02;2.08;;;;;;;25.63;39.31;101428.63;5000206;28;20057;-30
2023/06/30 11:15:28;;;;;;;4.40;1.30;;;;;;;25.61;39.26;101433.44;5000481;28;20054;-33
2023/06/30 11:17:54;;;;;;;4.57;1.52;;;;;;;25.57;38.68;101434.84;5000137;28;20053;-30
2023/06/30 11:20:26;;;;;;;3.85;1.58;;;;;;;25.55;38.63;101434.16;4997509;28;20421;-30
2023/06/30 11:23:05;;;;;;;5.93;1.23;;;;;;;25.53;38.58;101431.66;4995803;28;20125;-30
2023/06/30 11:25:35;;;;;;;4.35;1.30;;;;;;;25.51;37.91;101425.56;4996272;28;20054;-31
2023/06/30 11:28:04;;;;;;;3.90;1.50;;;;;;;25.51;38.15;101425.56;4999786;28;20522;-30
2023/06/30 11:30:38;;;;;;;3.38;1.30;;;;;;;25.48;38.35;101423.22;4995585;28;20061;-30
2023/06/30 11:33:06;;;;;;;6.55;1.70;;;;;;;25.45;38.23;101414.59;5003202;28;20108;-30
2023/06/30 11:35:34;;;;;;;3.85;1.38;;;;;;;25.42;37.79;101421.28;5000436;28;20174;-30
2023/06/30 11:38:01;;;;;;;4.32;1.08;;;;;;;25.38;38.05;101416.41;4997698;28;20049;-30
2023/06/30 11:40:28;;;;;;;2.60;1.05;;;;;;;25.35;38.14;101413.03;4999804;28;20100;-30
2023/06/30 11:42:54;;;;;;;6.53;1.40;;;;;;;25.34;38.45;101418.66;4996817;28;20050;-30
2023/06/30 11:45:26;;;;;;;3.15;1.15;;;;;;;25.31;38.46;101417.16;4998909;28;20054;-30
2023/06/30 11:47:55;;;;;;;5.53;1.65;;;;;;;25.28;38.44;101420.22;4999036;28;20081;-30